sensor_id;sensor_type;location;lat;lon;timestamp;P1;durP1;ratioP1;P2;durP2;ratioP2
36799;SDS011;22752;51.960;5.886;2022-12-07T00:01:36;17.87;;;15.67;;
36799;SDS011;22752;51.960;5.886;2022-12-07T00:04:06;16.03;;;14.03;;
36799;SDS011;22752;51.960;5.886;2022-12-07T00:06:37;15.53;;;13.70;;
36799;SDS011;22752;51.960;5.886;2022-12-07T00:09:04;16.73;;;14.13;;
36799;SDS011;22752;51.960;5.886;2022-12-07T00:11:32;16.80;;;13.90;;
36799;SDS011;22752;51.960;5.886;2022-12-07T00:13:59;15.83;;;12.83;;
36799;SDS011;22752;51.960;5.886;2022-12-07T00:16:28;13.90;;;12.40;;
36799;SDS011;22752;51.960;5.886;2022-12-07T00:18:55;14.40;;;12.27;;
36799;SDS011;22752;51.960;5.886;2022-12-07T00:21:22;14.87;;;11.70;;
36799;SDS011;22752;51.960;5.886;2022-12-07T00:23:56;16.90;;;12.10;;
36799;SDS011;22752;51.960;5.886;2022-12-07T00:26:23;15.83;;;11.20;;
36799;SDS011;22752;51.960;5.886;2022-12-07T00:28:58;18.83;;;12.40;;
36799;SDS011;22752;51.960;5.886;2022-12-07T00:31:26;16.37;;;11.50;;
36799;SDS011;22752;51.960;5.886;2022-12-07T00:33:54;16.50;;;13.43;;
36799;SDS011;22752;51.960;5.886;2022-12-07T00:36:21;17.30;;;13.53;;
36799;SDS011;22752;51.960;5.886;2022-12-07T00:38:47;16.73;;;12.77;;
36799;SDS011;22752;51.960;5.886;2022-12-07T00:41:15;25.20;;;15.47;;
36799;SDS011;22752;51.960;5.886;2022-12-07T00:43:45;16.47;;;12.63;;
36799;SDS011;22752;51.960;5.886;2022-12-07T00:46:12;17.20;;;11.67;;
36799;SDS011;22752;51.960;5.886;2022-12-07T00:48:38;15.90;;;10.27;;
36799;SDS011;22752;51.960;5.886;2022-12-07T00:51:04;14.93;;;11.30;;
36799;SDS011;22752;51.960;5.886;2022-12-07T00:53:30;14.30;;;10.07;;
36799;SDS011;22752;51.960;5.886;2022-12-07T00:56:04;12.87;;;10.30;;
36799;SDS011;22752;51.960;5.886;2022-12-07T00:58:33;12.07;;;10.50;;
36799;SDS011;22752;51.960;5.886;2022-12-07T01:00:59;15.57;;;11.20;;
36799;SDS011;22752;51.960;5.886;2022-12-07T01:03:27;15.13;;;11.90;;
36799;SDS011;22752;51.960;5.886;2022-12-07T01:05:53;13.13;;;11.07;;
36799;SDS011;22752;51.960;5.886;2022-12-07T01:08:20;12.13;;;10.23;;
36799;SDS011;22752;51.960;5.886;2022-12-07T01:10:47;15.33;;;10.87;;
36799;SDS011;22752;51.960;5.886;2022-12-07T01:13:13;16.90;;;11.93;;
36799;SDS011;22752;51.960;5.886;2022-12-07T01:15:40;16.47;;;11.60;;
36799;SDS011;22752;51.960;5.886;2022-12-07T01:18:07;15.43;;;11.10;;
36799;SDS011;22752;51.960;5.886;2022-12-07T01:20:32;17.67;;;11.93;;
36799;SDS011;22752;51.960;5.886;2022-12-07T01:22:58;15.50;;;12.83;;
36799;SDS011;22752;51.960;5.886;2022-12-07T01:25:24;14.10;;;10.90;;
36799;SDS011;22752;51.960;5.886;2022-12-07T01:27:49;15.47;;;11.77;;
36799;SDS011;22752;51.960;5.886;2022-12-07T01:30:15;15.17;;;11.00;;
36799;SDS011;22752;51.960;5.886;2022-12-07T01:32:40;11.57;;;10.30;;
36799;SDS011;22752;51.960;5.886;2022-12-07T01:35:06;15.00;;;10.27;;
36799;SDS011;22752;51.960;5.886;2022-12-07T01:37:36;12.10;;;9.83;;
36799;SDS011;22752;51.960;5.886;2022-12-07T01:40:04;13.47;;;10.83;;
36799;SDS011;22752;51.960;5.886;2022-12-07T01:42:31;12.17;;;10.10;;
36799;SDS011;22752;51.960;5.886;2022-12-07T01:48:01;12.00;;;10.33;;
36799;SDS011;22752;51.960;5.886;2022-12-07T01:50:27;14.60;;;9.80;;
36799;SDS011;22752;51.960;5.886;2022-12-07T01:52:56;13.37;;;9.73;;
36799;SDS011;22752;51.960;5.886;2022-12-07T01:55:26;12.80;;;9.43;;
36799;SDS011;22752;51.960;5.886;2022-12-07T01:57:52;17.03;;;11.07;;
36799;SDS011;22752;51.960;5.886;2022-12-07T02:00:20;12.73;;;10.57;;
36799;SDS011;22752;51.960;5.886;2022-12-07T02:02:57;13.70;;;9.60;;
36799;SDS011;22752;51.960;5.886;2022-12-07T02:05:34;13.10;;;9.23;;
36799;SDS011;22752;51.960;5.886;2022-12-07T02:08:02;13.10;;;8.83;;
36799;SDS011;22752;51.960;5.886;2022-12-07T02:10:29;11.60;;;8.73;;
36799;SDS011;22752;51.960;5.886;2022-12-07T02:13:01;12.87;;;10.07;;
36799;SDS011;22752;51.960;5.886;2022-12-07T02:20:57;13.53;;;9.20;;
36799;SDS011;22752;51.960;5.886;2022-12-07T02:34:50;10.65;;;8.52;;
36799;SDS011;22752;51.960;5.886;2022-12-07T02:37:26;12.87;;;9.20;;
36799;SDS011;22752;51.960;5.886;2022-12-07T02:40:21;13.50;;;9.70;;
36799;SDS011;22752;51.960;5.886;2022-12-07T02:43:19;10.73;;;9.60;;
36799;SDS011;22752;51.960;5.886;2022-12-07T02:45:50;13.13;;;10.27;;
36799;SDS011;22752;51.960;5.886;2022-12-07T02:48:19;14.60;;;10.13;;
36799;SDS011;22752;51.960;5.886;2022-12-07T02:50:49;11.57;;;9.17;;
36799;SDS011;22752;51.960;5.886;2022-12-07T02:53:31;12.03;;;9.87;;
36799;SDS011;22752;51.960;5.886;2022-12-07T02:55:58;12.47;;;9.10;;
36799;SDS011;22752;51.960;5.886;2022-12-07T03:03:40;10.83;;;8.73;;
36799;SDS011;22752;51.960;5.886;2022-12-07T03:11:20;15.63;;;11.20;;
36799;SDS011;22752;51.960;5.886;2022-12-07T03:16:41;13.00;;;8.77;;
36799;SDS011;22752;51.960;5.886;2022-12-07T03:19:21;12.93;;;10.23;;
36799;SDS011;22752;51.960;5.886;2022-12-07T03:22:10;17.13;;;10.53;;
36799;SDS011;22752;51.960;5.886;2022-12-07T03:24:45;12.00;;;8.93;;
36799;SDS011;22752;51.960;5.886;2022-12-07T03:27:34;12.00;;;8.87;;
36799;SDS011;22752;51.960;5.886;2022-12-07T03:30:05;13.80;;;10.17;;
36799;SDS011;22752;51.960;5.886;2022-12-07T03:40:29;16.73;;;11.20;;
36799;SDS011;22752;51.960;5.886;2022-12-07T03:43:00;15.33;;;10.67;;
36799;SDS011;22752;51.960;5.886;2022-12-07T03:45:37;18.50;;;11.30;;
36799;SDS011;22752;51.960;5.886;2022-12-07T03:48:20;14.67;;;10.80;;
36799;SDS011;22752;51.960;5.886;2022-12-07T03:53:34;11.87;;;9.50;;
36799;SDS011;22752;51.960;5.886;2022-12-07T03:56:11;12.87;;;9.00;;
36799;SDS011;22752;51.960;5.886;2022-12-07T03:58:38;12.73;;;8.30;;
36799;SDS011;22752;51.960;5.886;2022-12-07T04:01:06;14.37;;;9.07;;
36799;SDS011;22752;51.960;5.886;2022-12-07T04:03:31;18.50;;;10.03;;
36799;SDS011;22752;51.960;5.886;2022-12-07T04:05:57;20.83;;;10.50;;
36799;SDS011;22752;51.960;5.886;2022-12-07T04:08:23;12.57;;;8.57;;
36799;SDS011;22752;51.960;5.886;2022-12-07T04:10:49;14.70;;;8.20;;
36799;SDS011;22752;51.960;5.886;2022-12-07T04:13:15;11.63;;;7.47;;
36799;SDS011;22752;51.960;5.886;2022-12-07T04:15:41;12.73;;;7.40;;
36799;SDS011;22752;51.960;5.886;2022-12-07T04:18:06;16.93;;;6.97;;
36799;SDS011;22752;51.960;5.886;2022-12-07T04:20:32;12.30;;;6.87;;
36799;SDS011;22752;51.960;5.886;2022-12-07T04:22:58;10.73;;;6.33;;
36799;SDS011;22752;51.960;5.886;2022-12-07T04:25:23;9.83;;;6.27;;
36799;SDS011;22752;51.960;5.886;2022-12-07T04:27:49;12.00;;;7.30;;
36799;SDS011;22752;51.960;5.886;2022-12-07T04:30:14;11.40;;;6.63;;
36799;SDS011;22752;51.960;5.886;2022-12-07T04:32:40;13.77;;;7.10;;
36799;SDS011;22752;51.960;5.886;2022-12-07T04:35:06;10.80;;;6.80;;
36799;SDS011;22752;51.960;5.886;2022-12-07T04:37:32;10.20;;;6.40;;
36799;SDS011;22752;51.960;5.886;2022-12-07T04:39:57;9.17;;;6.47;;
36799;SDS011;22752;51.960;5.886;2022-12-07T04:42:23;10.43;;;6.73;;
36799;SDS011;22752;51.960;5.886;2022-12-07T04:44:48;9.30;;;6.53;;
36799;SDS011;22752;51.960;5.886;2022-12-07T04:47:14;11.13;;;7.97;;
36799;SDS011;22752;51.960;5.886;2022-12-07T04:49:40;12.63;;;8.00;;
36799;SDS011;22752;51.960;5.886;2022-12-07T04:52:05;14.80;;;7.77;;
36799;SDS011;22752;51.960;5.886;2022-12-07T04:54:31;15.43;;;8.23;;
36799;SDS011;22752;51.960;5.886;2022-12-07T04:56:56;14.70;;;9.03;;
36799;SDS011;22752;51.960;5.886;2022-12-07T04:59:22;14.03;;;8.47;;
36799;SDS011;22752;51.960;5.886;2022-12-07T05:01:48;10.10;;;7.53;;
36799;SDS011;22752;51.960;5.886;2022-12-07T05:04:13;12.70;;;8.17;;
36799;SDS011;22752;51.960;5.886;2022-12-07T05:06:41;13.57;;;8.27;;
36799;SDS011;22752;51.960;5.886;2022-12-07T05:09:07;11.57;;;7.37;;
36799;SDS011;22752;51.960;5.886;2022-12-07T05:11:32;11.67;;;8.13;;
36799;SDS011;22752;51.960;5.886;2022-12-07T05:14:06;10.17;;;7.37;;
36799;SDS011;22752;51.960;5.886;2022-12-07T05:16:37;10.82;;;6.95;;
36799;SDS011;22752;51.960;5.886;2022-12-07T05:19:04;10.20;;;6.23;;
36799;SDS011;22752;51.960;5.886;2022-12-07T05:21:30;8.27;;;5.90;;
36799;SDS011;22752;51.960;5.886;2022-12-07T05:23:55;7.00;;;5.50;;
36799;SDS011;22752;51.960;5.886;2022-12-07T05:26:21;9.00;;;5.60;;
36799;SDS011;22752;51.960;5.886;2022-12-07T05:28:51;8.70;;;5.40;;
36799;SDS011;22752;51.960;5.886;2022-12-07T05:31:18;8.73;;;5.53;;
36799;SDS011;22752;51.960;5.886;2022-12-07T05:33:43;6.77;;;5.77;;
36799;SDS011;22752;51.960;5.886;2022-12-07T05:36:09;9.57;;;5.43;;
36799;SDS011;22752;51.960;5.886;2022-12-07T05:38:35;7.50;;;5.93;;
36799;SDS011;22752;51.960;5.886;2022-12-07T05:41:04;8.27;;;6.13;;
36799;SDS011;22752;51.960;5.886;2022-12-07T05:43:31;8.83;;;6.80;;
36799;SDS011;22752;51.960;5.886;2022-12-07T05:45:57;10.40;;;6.60;;
36799;SDS011;22752;51.960;5.886;2022-12-07T05:48:23;11.63;;;6.27;;
36799;SDS011;22752;51.960;5.886;2022-12-07T05:50:50;9.07;;;6.40;;
36799;SDS011;22752;51.960;5.886;2022-12-07T05:53:16;13.00;;;7.20;;
36799;SDS011;22752;51.960;5.886;2022-12-07T05:55:42;10.33;;;6.63;;
36799;SDS011;22752;51.960;5.886;2022-12-07T05:58:08;11.40;;;7.70;;
36799;SDS011;22752;51.960;5.886;2022-12-07T06:00:54;10.50;;;6.07;;
36799;SDS011;22752;51.960;5.886;2022-12-07T06:03:20;11.03;;;5.67;;
36799;SDS011;22752;51.960;5.886;2022-12-07T06:05:46;8.60;;;5.73;;
36799;SDS011;22752;51.960;5.886;2022-12-07T06:08:12;8.57;;;5.40;;
36799;SDS011;22752;51.960;5.886;2022-12-07T06:10:39;8.13;;;4.70;;
36799;SDS011;22752;51.960;5.886;2022-12-07T06:13:05;7.77;;;5.20;;
36799;SDS011;22752;51.960;5.886;2022-12-07T06:15:30;10.17;;;5.30;;
36799;SDS011;22752;51.960;5.886;2022-12-07T06:17:56;11.03;;;5.87;;
36799;SDS011;22752;51.960;5.886;2022-12-07T06:20:22;11.87;;;5.50;;
36799;SDS011;22752;51.960;5.886;2022-12-07T06:22:47;9.10;;;4.93;;
36799;SDS011;22752;51.960;5.886;2022-12-07T06:25:13;7.97;;;4.93;;
36799;SDS011;22752;51.960;5.886;2022-12-07T06:27:38;7.40;;;5.23;;
36799;SDS011;22752;51.960;5.886;2022-12-07T06:30:04;9.43;;;5.03;;
36799;SDS011;22752;51.960;5.886;2022-12-07T06:32:32;9.33;;;5.27;;
36799;SDS011;22752;51.960;5.886;2022-12-07T06:34:59;6.57;;;5.03;;
36799;SDS011;22752;51.960;5.886;2022-12-07T06:37:24;12.00;;;5.80;;
36799;SDS011;22752;51.960;5.886;2022-12-07T06:39:50;9.63;;;5.40;;
36799;SDS011;22752;51.960;5.886;2022-12-07T06:42:16;6.33;;;4.63;;
36799;SDS011;22752;51.960;5.886;2022-12-07T06:44:41;10.20;;;5.60;;
36799;SDS011;22752;51.960;5.886;2022-12-07T06:47:07;7.40;;;4.87;;
36799;SDS011;22752;51.960;5.886;2022-12-07T06:49:34;9.53;;;5.40;;
36799;SDS011;22752;51.960;5.886;2022-12-07T06:52:00;6.97;;;4.33;;
36799;SDS011;22752;51.960;5.886;2022-12-07T06:54:26;11.23;;;4.90;;
36799;SDS011;22752;51.960;5.886;2022-12-07T06:56:52;10.13;;;4.70;;
36799;SDS011;22752;51.960;5.886;2022-12-07T06:59:17;9.17;;;4.87;;
36799;SDS011;22752;51.960;5.886;2022-12-07T07:01:43;8.13;;;5.07;;
36799;SDS011;22752;51.960;5.886;2022-12-07T07:04:09;8.37;;;4.97;;
36799;SDS011;22752;51.960;5.886;2022-12-07T07:06:34;8.83;;;4.70;;
36799;SDS011;22752;51.960;5.886;2022-12-07T07:09:00;8.57;;;4.97;;
36799;SDS011;22752;51.960;5.886;2022-12-07T07:11:26;11.73;;;5.47;;
36799;SDS011;22752;51.960;5.886;2022-12-07T07:13:52;11.57;;;5.13;;
36799;SDS011;22752;51.960;5.886;2022-12-07T07:16:18;8.73;;;4.80;;
36799;SDS011;22752;51.960;5.886;2022-12-07T07:18:44;7.37;;;4.50;;
36799;SDS011;22752;51.960;5.886;2022-12-07T07:21:10;5.87;;;4.43;;
36799;SDS011;22752;51.960;5.886;2022-12-07T07:23:35;9.60;;;4.70;;
36799;SDS011;22752;51.960;5.886;2022-12-07T07:26:01;7.17;;;4.37;;
36799;SDS011;22752;51.960;5.886;2022-12-07T07:28:26;9.37;;;4.50;;
36799;SDS011;22752;51.960;5.886;2022-12-07T07:30:52;9.43;;;4.30;;
36799;SDS011;22752;51.960;5.886;2022-12-07T07:33:18;7.73;;;4.10;;
36799;SDS011;22752;51.960;5.886;2022-12-07T07:35:43;6.30;;;3.83;;
36799;SDS011;22752;51.960;5.886;2022-12-07T07:38:09;6.93;;;3.83;;
36799;SDS011;22752;51.960;5.886;2022-12-07T07:40:34;6.83;;;3.70;;
36799;SDS011;22752;51.960;5.886;2022-12-07T07:43:00;6.03;;;4.13;;
36799;SDS011;22752;51.960;5.886;2022-12-07T07:45:26;7.07;;;4.50;;
36799;SDS011;22752;51.960;5.886;2022-12-07T07:47:52;8.37;;;4.60;;
36799;SDS011;22752;51.960;5.886;2022-12-07T07:50:18;12.40;;;4.93;;
36799;SDS011;22752;51.960;5.886;2022-12-07T07:52:44;8.63;;;4.60;;
36799;SDS011;22752;51.960;5.886;2022-12-07T07:55:11;9.37;;;4.03;;
36799;SDS011;22752;51.960;5.886;2022-12-07T07:57:37;8.40;;;3.63;;
36799;SDS011;22752;51.960;5.886;2022-12-07T08:00:04;9.53;;;3.60;;
36799;SDS011;22752;51.960;5.886;2022-12-07T08:02:33;6.10;;;3.60;;
36799;SDS011;22752;51.960;5.886;2022-12-07T08:04:59;6.77;;;3.60;;
36799;SDS011;22752;51.960;5.886;2022-12-07T08:07:24;7.13;;;3.40;;
36799;SDS011;22752;51.960;5.886;2022-12-07T08:09:51;9.80;;;3.93;;
36799;SDS011;22752;51.960;5.886;2022-12-07T08:12:18;11.67;;;4.33;;
36799;SDS011;22752;51.960;5.886;2022-12-07T08:14:44;9.77;;;4.20;;
36799;SDS011;22752;51.960;5.886;2022-12-07T08:17:09;8.23;;;4.10;;
36799;SDS011;22752;51.960;5.886;2022-12-07T08:19:35;8.33;;;3.70;;
36799;SDS011;22752;51.960;5.886;2022-12-07T08:22:00;7.40;;;4.40;;
36799;SDS011;22752;51.960;5.886;2022-12-07T08:24:26;8.83;;;4.33;;
36799;SDS011;22752;51.960;5.886;2022-12-07T08:26:52;8.20;;;4.40;;
36799;SDS011;22752;51.960;5.886;2022-12-07T08:29:18;7.13;;;4.10;;
36799;SDS011;22752;51.960;5.886;2022-12-07T08:31:43;12.00;;;4.80;;
36799;SDS011;22752;51.960;5.886;2022-12-07T08:34:12;9.77;;;4.60;;
36799;SDS011;22752;51.960;5.886;2022-12-07T08:36:38;7.93;;;4.70;;
36799;SDS011;22752;51.960;5.886;2022-12-07T08:39:04;11.57;;;5.23;;
36799;SDS011;22752;51.960;5.886;2022-12-07T08:41:30;12.37;;;4.83;;
36799;SDS011;22752;51.960;5.886;2022-12-07T08:43:56;9.43;;;4.90;;
36799;SDS011;22752;51.960;5.886;2022-12-07T08:46:38;8.33;;;4.57;;
36799;SDS011;22752;51.960;5.886;2022-12-07T08:49:11;11.57;;;4.77;;
36799;SDS011;22752;51.960;5.886;2022-12-07T08:51:40;11.07;;;4.55;;
36799;SDS011;22752;51.960;5.886;2022-12-07T08:54:07;10.07;;;4.47;;
36799;SDS011;22752;51.960;5.886;2022-12-07T08:56:35;8.73;;;3.90;;
36799;SDS011;22752;51.960;5.886;2022-12-07T08:59:01;6.53;;;3.63;;
36799;SDS011;22752;51.960;5.886;2022-12-07T09:01:28;10.50;;;4.30;;
36799;SDS011;22752;51.960;5.886;2022-12-07T09:03:54;13.13;;;4.40;;
36799;SDS011;22752;51.960;5.886;2022-12-07T09:06:19;10.90;;;4.33;;
36799;SDS011;22752;51.960;5.886;2022-12-07T09:08:49;7.87;;;4.20;;
36799;SDS011;22752;51.960;5.886;2022-12-07T09:11:19;13.80;;;4.90;;
36799;SDS011;22752;51.960;5.886;2022-12-07T09:13:44;13.73;;;5.03;;
36799;SDS011;22752;51.960;5.886;2022-12-07T09:16:10;9.83;;;5.30;;
36799;SDS011;22752;51.960;5.886;2022-12-07T09:18:35;13.30;;;5.10;;
36799;SDS011;22752;51.960;5.886;2022-12-07T09:21:03;12.70;;;5.50;;
36799;SDS011;22752;51.960;5.886;2022-12-07T09:23:28;14.87;;;5.83;;
36799;SDS011;22752;51.960;5.886;2022-12-07T09:25:54;14.33;;;4.87;;
36799;SDS011;22752;51.960;5.886;2022-12-07T09:28:20;11.57;;;4.30;;
36799;SDS011;22752;51.960;5.886;2022-12-07T09:30:46;8.50;;;3.97;;
36799;SDS011;22752;51.960;5.886;2022-12-07T09:33:13;12.13;;;4.97;;
36799;SDS011;22752;51.960;5.886;2022-12-07T09:35:43;11.83;;;4.17;;
36799;SDS011;22752;51.960;5.886;2022-12-07T09:38:12;11.87;;;4.13;;
36799;SDS011;22752;51.960;5.886;2022-12-07T09:40:38;10.63;;;4.40;;
36799;SDS011;22752;51.960;5.886;2022-12-07T09:43:04;11.53;;;4.43;;
36799;SDS011;22752;51.960;5.886;2022-12-07T09:45:34;12.83;;;4.60;;
36799;SDS011;22752;51.960;5.886;2022-12-07T09:48:04;9.00;;;4.17;;
36799;SDS011;22752;51.960;5.886;2022-12-07T09:50:31;14.27;;;4.93;;
36799;SDS011;22752;51.960;5.886;2022-12-07T09:53:10;14.00;;;4.77;;
36799;SDS011;22752;51.960;5.886;2022-12-07T09:55:50;13.53;;;4.80;;
36799;SDS011;22752;51.960;5.886;2022-12-07T09:58:26;13.73;;;4.30;;
36799;SDS011;22752;51.960;5.886;2022-12-07T10:00:56;13.47;;;4.13;;
36799;SDS011;22752;51.960;5.886;2022-12-07T10:03:30;14.60;;;4.57;;
36799;SDS011;22752;51.960;5.886;2022-12-07T10:05:55;12.17;;;4.30;;
36799;SDS011;22752;51.960;5.886;2022-12-07T10:08:22;11.87;;;4.00;;
36799;SDS011;22752;51.960;5.886;2022-12-07T10:10:53;14.40;;;4.10;;
36799;SDS011;22752;51.960;5.886;2022-12-07T10:13:22;11.17;;;4.93;;
36799;SDS011;22752;51.960;5.886;2022-12-07T10:15:59;11.37;;;3.87;;
36799;SDS011;22752;51.960;5.886;2022-12-07T10:18:41;12.60;;;4.40;;
36799;SDS011;22752;51.960;5.886;2022-12-07T10:26:50;11.30;;;4.00;;
36799;SDS011;22752;51.960;5.886;2022-12-07T10:29:51;10.73;;;4.03;;
36799;SDS011;22752;51.960;5.886;2022-12-07T10:34:41;9.47;;;4.13;;
36799;SDS011;22752;51.960;5.886;2022-12-07T10:44:43;11.13;;;3.87;;
36799;SDS011;22752;51.960;5.886;2022-12-07T10:47:28;13.03;;;4.60;;
36799;SDS011;22752;51.960;5.886;2022-12-07T10:50:02;13.33;;;4.40;;
36799;SDS011;22752;51.960;5.886;2022-12-07T10:55:27;11.80;;;4.60;;
36799;SDS011;22752;51.960;5.886;2022-12-07T11:03:37;10.67;;;4.00;;
36799;SDS011;22752;51.960;5.886;2022-12-07T11:09:00;12.03;;;3.20;;
36799;SDS011;22752;51.960;5.886;2022-12-07T11:16:58;9.07;;;2.63;;
36799;SDS011;22752;51.960;5.886;2022-12-07T11:22:23;7.80;;;2.63;;
36799;SDS011;22752;51.960;5.886;2022-12-07T11:28:11;8.87;;;2.87;;
36799;SDS011;22752;51.960;5.886;2022-12-07T11:30:34;18.03;;;4.47;;
36799;SDS011;22752;51.960;5.886;2022-12-07T11:41:02;12.53;;;3.27;;
36799;SDS011;22752;51.960;5.886;2022-12-07T11:43:50;9.53;;;3.13;;
36799;SDS011;22752;51.960;5.886;2022-12-07T11:46:19;9.47;;;3.13;;
36799;SDS011;22752;51.960;5.886;2022-12-07T11:48:55;10.57;;;3.63;;
36799;SDS011;22752;51.960;5.886;2022-12-07T11:51:27;8.27;;;3.10;;
36799;SDS011;22752;51.960;5.886;2022-12-07T11:53:55;9.67;;;3.10;;
36799;SDS011;22752;51.960;5.886;2022-12-07T11:56:34;7.40;;;2.70;;
36799;SDS011;22752;51.960;5.886;2022-12-07T11:59:12;13.03;;;3.70;;
36799;SDS011;22752;51.960;5.886;2022-12-07T12:04:59;12.97;;;2.87;;
36799;SDS011;22752;51.960;5.886;2022-12-07T12:07:38;12.30;;;3.00;;
36799;SDS011;22752;51.960;5.886;2022-12-07T12:10:06;8.67;;;2.00;;
36799;SDS011;22752;51.960;5.886;2022-12-07T12:21:13;7.00;;;2.13;;
36799;SDS011;22752;51.960;5.886;2022-12-07T12:23:43;9.30;;;2.27;;
36799;SDS011;22752;51.960;5.886;2022-12-07T12:26:18;6.63;;;2.33;;
36799;SDS011;22752;51.960;5.886;2022-12-07T12:33:49;10.97;;;3.17;;
36799;SDS011;22752;51.960;5.886;2022-12-07T12:46:46;10.57;;;2.30;;
36799;SDS011;22752;51.960;5.886;2022-12-07T12:51:49;10.20;;;3.40;;
36799;SDS011;22752;51.960;5.886;2022-12-07T12:57:27;14.83;;;2.47;;
36799;SDS011;22752;51.960;5.886;2022-12-07T13:04:56;6.57;;;2.20;;
36799;SDS011;22752;51.960;5.886;2022-12-07T13:13:04;9.80;;;2.10;;
36799;SDS011;22752;51.960;5.886;2022-12-07T13:15:52;10.20;;;2.30;;
36799;SDS011;22752;51.960;5.886;2022-12-07T13:18:39;10.77;;;2.60;;
36799;SDS011;22752;51.960;5.886;2022-12-07T13:23:37;12.30;;;2.80;;
36799;SDS011;22752;51.960;5.886;2022-12-07T13:26:23;11.03;;;2.90;;
36799;SDS011;22752;51.960;5.886;2022-12-07T13:34:01;13.43;;;4.30;;
36799;SDS011;22752;51.960;5.886;2022-12-07T13:36:32;15.93;;;4.70;;
36799;SDS011;22752;51.960;5.886;2022-12-07T13:41:43;13.57;;;4.73;;
36799;SDS011;22752;51.960;5.886;2022-12-07T13:44:10;12.03;;;4.40;;
36799;SDS011;22752;51.960;5.886;2022-12-07T13:49:26;13.73;;;3.57;;
36799;SDS011;22752;51.960;5.886;2022-12-07T13:51:54;9.20;;;2.80;;
36799;SDS011;22752;51.960;5.886;2022-12-07T13:54:31;8.27;;;2.50;;
36799;SDS011;22752;51.960;5.886;2022-12-07T13:56:57;10.03;;;2.33;;
36799;SDS011;22752;51.960;5.886;2022-12-07T13:59:24;10.43;;;2.00;;
36799;SDS011;22752;51.960;5.886;2022-12-07T14:01:52;13.10;;;3.13;;
36799;SDS011;22752;51.960;5.886;2022-12-07T14:06:58;11.87;;;3.53;;
36799;SDS011;22752;51.960;5.886;2022-12-07T14:09:26;12.37;;;4.03;;
36799;SDS011;22752;51.960;5.886;2022-12-07T14:11:53;11.10;;;3.23;;
36799;SDS011;22752;51.960;5.886;2022-12-07T14:14:22;7.97;;;2.70;;
36799;SDS011;22752;51.960;5.886;2022-12-07T14:16:58;8.23;;;2.13;;
36799;SDS011;22752;51.960;5.886;2022-12-07T14:19:47;8.57;;;2.20;;
36799;SDS011;22752;51.960;5.886;2022-12-07T14:22:22;7.47;;;1.53;;
36799;SDS011;22752;51.960;5.886;2022-12-07T14:25:00;8.50;;;1.90;;
36799;SDS011;22752;51.960;5.886;2022-12-07T14:27:38;7.57;;;1.80;;
36799;SDS011;22752;51.960;5.886;2022-12-07T14:30:15;12.17;;;1.97;;
36799;SDS011;22752;51.960;5.886;2022-12-07T14:32:42;6.00;;;1.47;;
36799;SDS011;22752;51.960;5.886;2022-12-07T14:35:13;5.87;;;1.53;;
36799;SDS011;22752;51.960;5.886;2022-12-07T14:37:42;5.90;;;1.50;;
36799;SDS011;22752;51.960;5.886;2022-12-07T14:40:12;6.53;;;1.47;;
36799;SDS011;22752;51.960;5.886;2022-12-07T14:42:47;6.70;;;1.90;;
36799;SDS011;22752;51.960;5.886;2022-12-07T14:45:20;8.68;;;2.08;;
36799;SDS011;22752;51.960;5.886;2022-12-07T14:47:47;7.50;;;1.47;;
36799;SDS011;22752;51.960;5.886;2022-12-07T14:50:14;5.90;;;1.50;;
36799;SDS011;22752;51.960;5.886;2022-12-07T14:52:46;6.63;;;1.80;;
36799;SDS011;22752;51.960;5.886;2022-12-07T14:55:33;5.43;;;1.57;;
36799;SDS011;22752;51.960;5.886;2022-12-07T14:57:58;4.03;;;1.40;;
36799;SDS011;22752;51.960;5.886;2022-12-07T15:00:25;7.80;;;1.60;;
36799;SDS011;22752;51.960;5.886;2022-12-07T15:02:52;5.83;;;1.80;;
36799;SDS011;22752;51.960;5.886;2022-12-07T15:05:18;6.37;;;1.60;;
36799;SDS011;22752;51.960;5.886;2022-12-07T15:07:44;7.37;;;1.70;;
36799;SDS011;22752;51.960;5.886;2022-12-07T15:12:43;9.07;;;1.83;;
36799;SDS011;22752;51.960;5.886;2022-12-07T15:15:08;5.87;;;1.63;;
36799;SDS011;22752;51.960;5.886;2022-12-07T15:17:34;5.53;;;1.80;;
36799;SDS011;22752;51.960;5.886;2022-12-07T15:20:00;7.77;;;1.70;;
36799;SDS011;22752;51.960;5.886;2022-12-07T15:22:26;4.87;;;2.00;;
36799;SDS011;22752;51.960;5.886;2022-12-07T15:24:52;6.47;;;1.80;;
36799;SDS011;22752;51.960;5.886;2022-12-07T15:27:17;6.13;;;2.00;;
36799;SDS011;22752;51.960;5.886;2022-12-07T15:29:43;5.00;;;1.80;;
36799;SDS011;22752;51.960;5.886;2022-12-07T15:32:08;13.00;;;3.03;;
36799;SDS011;22752;51.960;5.886;2022-12-07T15:34:34;7.57;;;2.90;;
36799;SDS011;22752;51.960;5.886;2022-12-07T15:37:00;10.80;;;3.77;;
36799;SDS011;22752;51.960;5.886;2022-12-07T15:39:25;7.77;;;3.80;;
36799;SDS011;22752;51.960;5.886;2022-12-07T15:41:51;9.07;;;2.90;;
36799;SDS011;22752;51.960;5.886;2022-12-07T15:44:17;9.73;;;3.80;;
36799;SDS011;22752;51.960;5.886;2022-12-07T15:47:02;10.67;;;3.70;;
36799;SDS011;22752;51.960;5.886;2022-12-07T15:49:29;11.07;;;3.47;;
36799;SDS011;22752;51.960;5.886;2022-12-07T15:51:55;9.80;;;3.23;;
36799;SDS011;22752;51.960;5.886;2022-12-07T15:54:24;8.43;;;3.37;;
36799;SDS011;22752;51.960;5.886;2022-12-07T15:56:52;10.90;;;3.40;;
36799;SDS011;22752;51.960;5.886;2022-12-07T15:59:17;9.13;;;3.13;;
36799;SDS011;22752;51.960;5.886;2022-12-07T16:01:43;7.93;;;3.70;;
36799;SDS011;22752;51.960;5.886;2022-12-07T16:04:09;9.37;;;3.83;;
36799;SDS011;22752;51.960;5.886;2022-12-07T16:06:35;8.90;;;3.37;;
36799;SDS011;22752;51.960;5.886;2022-12-07T16:09:01;8.30;;;3.10;;
36799;SDS011;22752;51.960;5.886;2022-12-07T16:11:27;7.30;;;2.83;;
36799;SDS011;22752;51.960;5.886;2022-12-07T16:13:52;13.50;;;3.20;;
36799;SDS011;22752;51.960;5.886;2022-12-07T16:16:18;9.97;;;2.97;;
36799;SDS011;22752;51.960;5.886;2022-12-07T16:18:45;9.43;;;2.80;;
36799;SDS011;22752;51.960;5.886;2022-12-07T16:21:11;8.10;;;3.63;;
36799;SDS011;22752;51.960;5.886;2022-12-07T16:23:38;8.37;;;3.00;;
36799;SDS011;22752;51.960;5.886;2022-12-07T16:26:11;10.63;;;3.00;;
36799;SDS011;22752;51.960;5.886;2022-12-07T16:28:42;8.97;;;2.80;;
36799;SDS011;22752;51.960;5.886;2022-12-07T16:31:15;7.17;;;2.77;;
36799;SDS011;22752;51.960;5.886;2022-12-07T16:33:42;8.73;;;2.47;;
36799;SDS011;22752;51.960;5.886;2022-12-07T16:36:08;7.13;;;3.10;;
36799;SDS011;22752;51.960;5.886;2022-12-07T16:38:36;7.03;;;2.90;;
36799;SDS011;22752;51.960;5.886;2022-12-07T16:41:02;12.73;;;2.90;;
36799;SDS011;22752;51.960;5.886;2022-12-07T16:43:29;7.90;;;2.83;;
36799;SDS011;22752;51.960;5.886;2022-12-07T16:45:55;8.03;;;2.20;;
36799;SDS011;22752;51.960;5.886;2022-12-07T16:48:20;8.13;;;2.70;;
36799;SDS011;22752;51.960;5.886;2022-12-07T16:50:46;9.80;;;2.67;;
36799;SDS011;22752;51.960;5.886;2022-12-07T16:53:12;6.20;;;2.47;;
36799;SDS011;22752;51.960;5.886;2022-12-07T16:55:40;9.23;;;2.80;;
36799;SDS011;22752;51.960;5.886;2022-12-07T16:58:08;6.13;;;2.50;;
36799;SDS011;22752;51.960;5.886;2022-12-07T17:00:34;8.27;;;2.50;;
36799;SDS011;22752;51.960;5.886;2022-12-07T17:03:01;6.73;;;2.53;;
36799;SDS011;22752;51.960;5.886;2022-12-07T17:05:27;4.00;;;2.03;;
36799;SDS011;22752;51.960;5.886;2022-12-07T17:07:55;9.07;;;3.10;;
36799;SDS011;22752;51.960;5.886;2022-12-07T17:10:22;7.63;;;3.20;;
36799;SDS011;22752;51.960;5.886;2022-12-07T17:12:49;6.90;;;3.40;;
36799;SDS011;22752;51.960;5.886;2022-12-07T17:15:15;7.33;;;3.37;;
36799;SDS011;22752;51.960;5.886;2022-12-07T17:20:19;6.13;;;3.17;;
36799;SDS011;22752;51.960;5.886;2022-12-07T17:22:45;8.03;;;4.03;;